Home > Products > Valid Products > TAF

000
FTUS42 KGSP 210520
TAFCLT
TAF
KCLT 210520Z 2106/2206 10004KT P6SM OVC025
     FM210900 04003KT 4SM BR OVC025
     FM211300 05003KT P6SM BKN025
     FM211700 07004KT P6SM SCT025 BKN040
     FM220000 06007KT P6SM -RA OVC035=



000
FTUS42 KGSP 210520
TAFCLT
TAF
KCLT 210520Z 2106/2206 10004KT P6SM OVC025
     FM210900 04003KT 4SM BR OVC025
     FM211300 05003KT P6SM BKN025
     FM211700 07004KT P6SM SCT025 BKN040
     FM220000 06007KT P6SM -RA OVC035=



000
FTUS42 KGSP 210520
TAFGSP
TAF
KGSP 210520Z 2106/2206 04003KT 6SM BR OVC011
      TEMPO 2109/2113 00000KT 2SM BR OVC009
     FM211600 06004KT P6SM BKN021
     FM212100 08005KT P6SM SCT025 BKN070
     FM220400 05006KT P6SM -RA OVC025=



000
FTUS42 KGSP 210520
TAFAVL
TAF
KAVL 210520Z 2106/2206 17004KT 3SM BR OVC003
     FM211400 16003KT P6SM OVC021
     FM211600 15003KT P6SM SCT040 OVC250
     FM212200 13006KT P6SM SCT025 OVC040
     FM220000 13005KT P6SM OVC025
     FM220300 08003KT P6SM -RA OVC019=



000
FTUS42 KGSP 210520
TAFAVL
TAF
KAVL 210520Z 2106/2206 17004KT 3SM BR OVC003
     FM211400 16003KT P6SM OVC021
     FM211600 15003KT P6SM SCT040 OVC250
     FM212200 13006KT P6SM SCT025 OVC040
     FM220000 13005KT P6SM OVC025
     FM220300 08003KT P6SM -RA OVC019=



000
FTUS42 KGSP 210203 AAA
TAFAVL
TAF AMD
KAVL 210203Z 2102/2124 18003KT 6SM BR BKN006 OVC012
      TEMPO 2102/2104 SCT006 OVC012
     FM210700 00000KT 3SM BR OVC004
     FM211400 14003KT P6SM OVC050
     FM212000 14004KT P6SM BKN015 OVC030=



000
FTUS42 KGSP 210203 AAA
TAFAVL
TAF AMD
KAVL 210203Z 2102/2124 18003KT 6SM BR BKN006 OVC012
      TEMPO 2102/2104 SCT006 OVC012
     FM210700 00000KT 3SM BR OVC004
     FM211400 14003KT P6SM OVC050
     FM212000 14004KT P6SM BKN015 OVC030=



000
FTUS42 KGSP 202334
TAFAVL
TAF
KAVL 202334Z 2100/2124 17006KT 6SM BR OVC014
     FM210800 00000KT 3SM BR OVC017
     FM211400 14003KT P6SM OVC050
     FM212000 14004KT P6SM BKN015 OVC030=



000
FTUS42 KGSP 202334
TAFCLT
TAF
KCLT 202334Z 2100/2124 08005KT P6SM OVC022
     FM210700 08003KT 5SM BR OVC015
     FM211600 07004KT P6SM OVC050=



000
FTUS42 KGSP 202334
TAFGSP
TAF
KGSP 202334Z 2100/2124 05004KT 6SM BR OVC016
     FM210500 06003KT 3SM BR OVC015
     FM211600 06004KT P6SM SCT040 BKN060
     FM212100 08005KT P6SM BKN025=



000
FTUS42 KGSP 202334
TAFAVL
TAF
KAVL 202334Z 2100/2124 17006KT 6SM BR OVC014
     FM210800 00000KT 3SM BR OVC017
     FM211400 14003KT P6SM OVC050
     FM212000 14004KT P6SM BKN015 OVC030=



000
FTUS42 KGSP 202334
TAFCLT
TAF
KCLT 202334Z 2100/2124 08005KT P6SM OVC022
     FM210700 08003KT 5SM BR OVC015
     FM211600 07004KT P6SM OVC050=



000
FTUS42 KGSP 202154 AAB
TAFAVL
TAF AMD
KAVL 202154Z 2022/2118 16003KT P6SM BKN014 OVC020
     FM210000 00000KT P6SM OVC010
     FM210600 00000KT 5SM BR BKN006
     FM211300 00000KT 5SM BR BKN010=



000
FTUS42 KGSP 202154 AAB
TAFAVL
TAF AMD
KAVL 202154Z 2022/2118 16003KT P6SM BKN014 OVC020
     FM210000 00000KT P6SM OVC010
     FM210600 00000KT 5SM BR BKN006
     FM211300 00000KT 5SM BR BKN010=



000
FTUS42 KGSP 202056 AAA
TAFCLT
TAF AMD
KCLT 202056Z 2021/2118 08004KT P6SM OVC024
     FM210700 00000KT 4SM BR OVC015
     FM211100 05003KT 6SM BR OVC024=



000
FTUS42 KGSP 202056 AAA
TAFCLT
TAF AMD
KCLT 202056Z 2021/2118 08004KT P6SM OVC024
     FM210700 00000KT 4SM BR OVC015
     FM211100 05003KT 6SM BR OVC024=



000
FTUS42 KGSP 202056 AAB
TAFGSP
TAF AMD
KGSP 202056Z 2021/2118 06005KT 6SM BR OVC008
     FM210500 00000KT 4SM BR OVC008
     FM211200 05003KT 3SM BR OVC010
     FM211300 05003KT 6SM BR OVC017
     FM211700 07004KT P6SM OVC024=



000
FTUS42 KGSP 201952 AAA
TAFAVL
TAF AMD
KAVL 201952Z 2020/2118 16003KT P6SM BKN022 OVC050
     FM202200 00000KT P6SM OVC025
     FM210000 00000KT P6SM OVC010
     FM210600 00000KT 5SM BR BKN006
     FM211300 00000KT 5SM BR BKN010=



000
FTUS42 KGSP 201952 AAA
TAFAVL
TAF AMD
KAVL 201952Z 2020/2118 16003KT P6SM BKN022 OVC050
     FM202200 00000KT P6SM OVC025
     FM210000 00000KT P6SM OVC010
     FM210600 00000KT 5SM BR BKN006
     FM211300 00000KT 5SM BR BKN010=



000
FTUS42 KGSP 201811 CCA
TAFGSP
TAF COR
KGSP 201811Z 2018/2118 06004KT 4SM -DZ BR OVC007
     FM202100 07004KT 5SM BR OVC015
     FM210700 00000KT 4SM BR OVC019
     FM211200 05003KT 3SM BR OVC010
     FM211300 05003KT 6SM BR OVC017
     FM211700 07004KT P6SM OVC024=



000
FTUS42 KGSP 201740
TAFCLT
TAF
KCLT 201740Z 2018/2118 07004KT P6SM OVC030
     FM210200 00000KT P6SM OVC025
     FM210700 00000KT 4SM BR OVC015
     FM211100 05003KT 6SM BR OVC024=



000
FTUS42 KGSP 201740
TAFGSP
TAF
KGSP 201740Z 2018/2118 06004KT 5SM -DZ BR OVC007
     FM202000 07004KT 6SM BR OVC015
     FM210200 06003KT 6SM BR OVC024
     FM210700 00000KT 4SM BR OVC019
     FM211200 05003KT 3SM BR OVC010
     FM211300 05003KT 6SM BR OVC017
     FM211700 07004KT P6SM OVC024=



000
FTUS42 KGSP 201740
TAFAVL
TAF
KAVL 201740Z 2018/2118 16003KT P6SM OVC015
     FM202100 00000KT P6SM OVC025
     FM210000 00000KT P6SM OVC010
     FM210600 00000KT 5SM BR BKN006
     FM211300 00000KT 5SM BR BKN010=



000
FTUS42 KGSP 201740
TAFCLT
TAF
KCLT 201740Z 2018/2118 07004KT P6SM OVC030
     FM210200 00000KT P6SM OVC025
     FM210700 00000KT 4SM BR OVC015
     FM211100 05003KT 6SM BR OVC024=



000
FTUS42 KGSP 201740
TAFAVL
TAF
KAVL 201740Z 2018/2118 16003KT P6SM OVC015
     FM202100 00000KT P6SM OVC025
     FM210000 00000KT P6SM OVC010
     FM210600 00000KT 5SM BR BKN006
     FM211300 00000KT 5SM BR BKN010=



000
FTUS42 KGSP 201530 AAB
TAFAVL
TAF AMD
KAVL 201530Z 2016/2112 16006KT P6SM BKN022 OVC030
     FM201700 16005KT P6SM BKN025 BKN100
     FM202200 VRB03KT P6SM SCT025 BKN045
     FM210300 VRB03KT 5SM BR BKN025
     FM210700 00000KT 2SM BR BKN025
     FM210900 00000KT 1/2SM FZFG BKN010=



000
FTUS42 KGSP 201530 AAB
TAFAVL
TAF AMD
KAVL 201530Z 2016/2112 16006KT P6SM BKN022 OVC030
     FM201700 16005KT P6SM BKN025 BKN100
     FM202200 VRB03KT P6SM SCT025 BKN045
     FM210300 VRB03KT 5SM BR BKN025
     FM210700 00000KT 2SM BR BKN025
     FM210900 00000KT 1/2SM FZFG BKN010=



000
FTUS42 KGSP 201512 AAA
TAFCLT
TAF AMD
KCLT 201512Z 2015/2112 06005KT P6SM -RA OVC040
     FM201700 06004KT P6SM OVC035
     FM210200 10004KT P6SM BKN021
     FM210300 10003KT 4SM BR BKN014
     FM210900 00000KT 1SM BR BKN010=



000
FTUS42 KGSP 201512 AAA
TAFCLT
TAF AMD
KCLT 201512Z 2015/2112 06005KT P6SM -RA OVC040
     FM201700 06004KT P6SM OVC035
     FM210200 10004KT P6SM BKN021
     FM210300 10003KT 4SM BR BKN014
     FM210900 00000KT 1SM BR BKN010=



000
FTUS42 KGSP 201401 AAB
TAFGSP
TAF AMD
KGSP 201401Z 2014/2112 05007KT 5SM -DZ BR OVC016
     FM201800 04004KT P6SM BKN020 OVC040
     FM210300 00000KT 5SM BR BKN030
     FM210900 00000KT 1SM BR BKN015=



000
FTUS42 KGSP 201359 AAA
TAFAVL
TAF AMD
KAVL 201359Z 2014/2112 19003KT P6SM -RA SCT020 OVC060
     FM201700 14003KT P6SM BKN025 BKN100
     FM202200 VRB03KT P6SM SCT025 BKN045
     FM210300 VRB03KT 5SM BR BKN025
     FM210700 00000KT 2SM BR BKN025
     FM210900 00000KT 1/2SM FZFG BKN010=



000
FTUS42 KGSP 201359 AAA
TAFAVL
TAF AMD
KAVL 201359Z 2014/2112 19003KT P6SM -RA SCT020 OVC060
     FM201700 14003KT P6SM BKN025 BKN100
     FM202200 VRB03KT P6SM SCT025 BKN045
     FM210300 VRB03KT 5SM BR BKN025
     FM210700 00000KT 2SM BR BKN025
     FM210900 00000KT 1/2SM FZFG BKN010=



000
FTUS42 KGSP 201148 CCA
TAFAVL
TAF COR
KAVL 201148Z 2012/2112 18003KT P6SM -RA BKN027 OVC060
     FM201900 14003KT P6SM BKN023
     FM202100 VRB03KT P6SM BKN045
     FM210300 VRB03KT 5SM BR BKN045
     FM210700 00000KT 2SM BR BKN030
     FM210900 00000KT 1/2SM FZFG BKN010=



000
FTUS42 KGSP 201148 CCA
TAFAVL
TAF COR
KAVL 201148Z 2012/2112 18003KT P6SM -RA BKN027 OVC060
     FM201900 14003KT P6SM BKN023
     FM202100 VRB03KT P6SM BKN045
     FM210300 VRB03KT 5SM BR BKN045
     FM210700 00000KT 2SM BR BKN030
     FM210900 00000KT 1/2SM FZFG BKN010=



000
FTUS42 KGSP 201122
TAFAVL
TAF
KAVL 201122Z 2012/2112 13004KT P6SM -RA SCT030 OVC060
     FM201900 00000KT P6SM BKN023
     FM202100 00000KT P6SM BKN045
     FM210300 00000KT 5SM BR BKN045
     FM210700 00000KT 2SM BR BKN030
     FM210900 00000KT 1/2SM FZFG BKN010=



000
FTUS42 KGSP 201122
TAFCLT
TAF
KCLT 201122Z 2012/2112 02005KT P6SM -RA OVC045
     FM201500 06004KT P6SM -RA OVC020
     FM201900 06004KT P6SM OVC035
     FM210200 10004KT P6SM BKN021
     FM210300 10003KT 4SM BR BKN014
     FM210900 00000KT 1SM BR BKN010=



000
FTUS42 KGSP 201122
TAFAVL
TAF
KAVL 201122Z 2012/2112 13004KT P6SM -RA SCT030 OVC060
     FM201900 00000KT P6SM BKN023
     FM202100 00000KT P6SM BKN045
     FM210300 00000KT 5SM BR BKN045
     FM210700 00000KT 2SM BR BKN030
     FM210900 00000KT 1/2SM FZFG BKN010=



000
FTUS42 KGSP 201122
TAFGSP
TAF
KGSP 201122Z 2012/2112 03005KT P6SM -RA BKN018 OVC040
     FM201400 05006KT P6SM -RA OVC027
     FM201900 04004KT P6SM OVC040
     FM210300 00000KT 5SM BR BKN030
     FM210900 00000KT 1SM BR BKN015=



000
FTUS42 KGSP 201122
TAFCLT
TAF
KCLT 201122Z 2012/2112 02005KT P6SM -RA OVC045
     FM201500 06004KT P6SM -RA OVC020
     FM201900 06004KT P6SM OVC035
     FM210200 10004KT P6SM BKN021
     FM210300 10003KT 4SM BR BKN014
     FM210900 00000KT 1SM BR BKN010=



000
FTUS42 KGSP 200905 AAA
TAFCLT
TAF AMD
KCLT 200905Z 2009/2106 08003KT P6SM OVC050
      TEMPO 2009/2012 11006KT -RA
     FM201200 06004KT P6SM -RA OVC045
     FM201800 06004KT P6SM -RA OVC024
     FM210300 08003KT P6SM -RA BKN020
     FM210400 08003KT 4SM BR SCT024=



000
FTUS42 KGSP 200905 AAA
TAFCLT
TAF AMD
KCLT 200905Z 2009/2106 08003KT P6SM OVC050
      TEMPO 2009/2012 11006KT -RA
     FM201200 06004KT P6SM -RA OVC045
     FM201800 06004KT P6SM -RA OVC024
     FM210300 08003KT P6SM -RA BKN020
     FM210400 08003KT 4SM BR SCT024=



000
FTUS42 KGSP 200528
TAFAVL
TAF
KAVL 200528Z 2006/2106 34003KT P6SM OVC100
     FM200900 35003KT P6SM -RA SCT020 OVC040
      TEMPO 2011/2013 00000KT P6SM -FZRASN OVC020
     FM201400 36003KT P6SM -RA OVC021
     FM202300 01003KT P6SM -RA BKN019
     FM210200 01003KT P6SM BKN007
     FM210400 01003KT P6SM BKN030=



000
FTUS42 KGSP 200528
TAFCLT
TAF
KCLT 200528Z 2006/2106 08004KT P6SM OVC150
      TEMPO 2006/2008 10006KT
     FM200800 07004KT P6SM OVC090
     FM201200 06004KT P6SM -RA OVC045
     FM201800 06004KT P6SM -RA OVC024
     FM210300 08003KT P6SM -RA BKN020
     FM210400 08003KT 4SM BR SCT024=



000
FTUS42 KGSP 200528
TAFCLT
TAF
KCLT 200528Z 2006/2106 08004KT P6SM OVC150
      TEMPO 2006/2008 10006KT
     FM200800 07004KT P6SM OVC090
     FM201200 06004KT P6SM -RA OVC045
     FM201800 06004KT P6SM -RA OVC024
     FM210300 08003KT P6SM -RA BKN020
     FM210400 08003KT 4SM BR SCT024=



000
FTUS42 KGSP 200528
TAFAVL
TAF
KAVL 200528Z 2006/2106 34003KT P6SM OVC100
     FM200900 35003KT P6SM -RA SCT020 OVC040
      TEMPO 2011/2013 00000KT P6SM -FZRASN OVC020
     FM201400 36003KT P6SM -RA OVC021
     FM202300 01003KT P6SM -RA BKN019
     FM210200 01003KT P6SM BKN007
     FM210400 01003KT P6SM BKN030=



000
FTUS42 KGSP 200528
TAFGSP
TAF
KGSP 200528Z 2006/2106 04003KT P6SM OVC090
     FM201000 04006KT P6SM -RA OVC040
     FM201500 04006KT P6SM -RA OVC028
     FM210300 02003KT 4SM BR SCT024=



000
FTUS42 KGSP 192339
TAFGSP
TAF
KGSP 192339Z 2000/2024 07003KT P6SM SCT080 BKN180
     FM200800 05004KT P6SM VCSH SCT030 BKN060
     FM201100 04005KT P6SM -RA BKN024 OVC030
     FM201600 05004KT P6SM VCSH OVC024=



000
FTUS42 KGSP 192339
TAFCLT
TAF
KCLT 192339Z 2000/2024 07004KT P6SM SCT080 BKN200
     FM201100 05004KT P6SM BKN035 OVC060 PROB30 2011/2015 P6SM -RA
     FM201500 05004KT P6SM -RA OVC030
     FM201900 07003KT P6SM SCT020 OVC024=



000
FTUS42 KGSP 192339
TAFAVL
TAF
KAVL 192339Z 2000/2024 34006KT P6SM SCT060 OVC200
     FM200900 VRB04KT P6SM VCSH OVC045
     FM201100 13004KT P6SM -RASN OVC030
     FM201400 15003KT P6SM VCSH OVC030=



000
FTUS42 KGSP 192339
TAFAVL
TAF
KAVL 192339Z 2000/2024 34006KT P6SM SCT060 OVC200
     FM200900 VRB04KT P6SM VCSH OVC045
     FM201100 13004KT P6SM -RASN OVC030
     FM201400 15003KT P6SM VCSH OVC030=



000
FTUS42 KGSP 192339
TAFCLT
TAF
KCLT 192339Z 2000/2024 07004KT P6SM SCT080 BKN200
     FM201100 05004KT P6SM BKN035 OVC060 PROB30 2011/2015 P6SM -RA
     FM201500 05004KT P6SM -RA OVC030
     FM201900 07003KT P6SM SCT020 OVC024=



000
FTUS42 KGSP 192050 AAA
TAFCLT
TAF AMD
KCLT 192050Z 1921/2018 01003KT P6SM BKN250
     FM200100 08003KT P6SM FEW070 OVC150
     FM200900 06003KT P6SM OVC050 PROB30 2011/2015 -RA BKN035=



000
FTUS42 KGSP 192050 AAA
TAFCLT
TAF AMD
KCLT 192050Z 1921/2018 01003KT P6SM BKN250
     FM200100 08003KT P6SM FEW070 OVC150
     FM200900 06003KT P6SM OVC050 PROB30 2011/2015 -RA BKN035=



000
FTUS42 KGSP 191739
TAFCLT
TAF
KCLT 191739Z 1918/2018 04003KT P6SM BKN250
     FM200100 11003KT P6SM FEW070 OVC150
     FM200900 06003KT P6SM OVC050 PROB30 2011/2015 -RA BKN035=



000
FTUS42 KGSP 191739
TAFAVL
TAF
KAVL 191739Z 1918/2018 35004KT P6SM SCT150 BKN250
     FM200500 00000KT P6SM OVC050
     FM200900 00000KT P6SM -RASN OVC035
     FM201500 34003KT P6SM BKN035=



000
FTUS42 KGSP 191739
TAFGSP
TAF
KGSP 191739Z 1918/2018 09003KT P6SM BKN250
     FM200500 00000KT P6SM OVC100
     FM200900 03004KT P6SM -RA OVC050
     FM201500 06003KT P6SM BKN050=



000
FTUS42 KGSP 191739
TAFAVL
TAF
KAVL 191739Z 1918/2018 35004KT P6SM SCT150 BKN250
     FM200500 00000KT P6SM OVC050
     FM200900 00000KT P6SM -RASN OVC035
     FM201500 34003KT P6SM BKN035=



000
FTUS42 KGSP 191739
TAFCLT
TAF
KCLT 191739Z 1918/2018 04003KT P6SM BKN250
     FM200100 11003KT P6SM FEW070 OVC150
     FM200900 06003KT P6SM OVC050 PROB30 2011/2015 -RA BKN035=



000
FTUS42 KGSP 191502 AAA
TAFCLT
TAF AMD
KCLT 191502Z 1915/2012 01006KT P6SM FEW250
     FM191900 02003KT P6SM BKN250
     FM200100 11003KT P6SM FEW070 OVC150
     FM201000 06003KT P6SM -RA BKN070=



000
FTUS42 KGSP 191502 AAA
TAFCLT
TAF AMD
KCLT 191502Z 1915/2012 01006KT P6SM FEW250
     FM191900 02003KT P6SM BKN250
     FM200100 11003KT P6SM FEW070 OVC150
     FM201000 06003KT P6SM -RA BKN070=



000
FTUS42 KGSP 191120
TAFCLT
TAF
KCLT 191120Z 1912/2012 03005KT P6SM FEW250
     FM200100 08003KT P6SM FEW070 BKN250
     FM201000 06003KT P6SM -RA BKN070=



000
FTUS42 KGSP 191120
TAFAVL
TAF
KAVL 191120Z 1912/2012 33010KT P6SM FEW250
     FM191900 33005KT P6SM SCT250
     FM200000 33005KT P6SM FEW060 BKN250
     FM200600 00000KT P6SM -RA OVC060
     FM201000 00000KT P6SM -FZRA OVC060=



000
FTUS42 KGSP 191120
TAFAVL
TAF
KAVL 191120Z 1912/2012 33010KT P6SM FEW250
     FM191900 33005KT P6SM SCT250
     FM200000 33005KT P6SM FEW060 BKN250
     FM200600 00000KT P6SM -RA OVC060
     FM201000 00000KT P6SM -FZRA OVC060=



000
FTUS42 KGSP 191120
TAFGSP
TAF
KGSP 191120Z 1912/2012 03004KT P6SM FEW250
     FM200000 07003KT P6SM FEW070 BKN250
     FM200600 05003KT P6SM -RA OVC070=



000
FTUS42 KGSP 191120
TAFCLT
TAF
KCLT 191120Z 1912/2012 03005KT P6SM FEW250
     FM200100 08003KT P6SM FEW070 BKN250
     FM201000 06003KT P6SM -RA BKN070=



000
FTUS42 KGSP 190903 AAA
TAFCLT
TAF AMD
KCLT 190903Z 1909/2006 05005KT P6SM FEW060 SCT250
     FM200100 07003KT P6SM SCT070 BKN250=



000
FTUS42 KGSP 190903 AAA
TAFCLT
TAF AMD
KCLT 190903Z 1909/2006 05005KT P6SM FEW060 SCT250
     FM200100 07003KT P6SM SCT070 BKN250=



000
FTUS42 KGSP 190521
TAFAVL
TAF
KAVL 190521Z 1906/2006 34007KT P6SM SCT045
     FM191200 33007KT P6SM FEW045 SCT250
     FM200300 34003KT P6SM -RASN BKN060=



000
FTUS42 KGSP 190521
TAFGSP
TAF
KGSP 190521Z 1906/2006 00000KT P6SM SCT060 BKN250
     FM191200 35003KT P6SM FEW060 SCT250
     FM191700 05004KT P6SM SCT250
     FM200300 07003KT P6SM -RA BKN070=



000
FTUS42 KGSP 190521
TAFAVL
TAF
KAVL 190521Z 1906/2006 34007KT P6SM SCT045
     FM191200 33007KT P6SM FEW045 SCT250
     FM200300 34003KT P6SM -RASN BKN060=



000
FTUS42 KGSP 190521
TAFCLT
TAF
KCLT 190521Z 1906/2006 VRB03KT P6SM BKN060
     FM191200 36003KT P6SM FEW060 SCT250
     FM200100 07003KT P6SM SCT070 BKN250=



000
FTUS42 KGSP 190521
TAFCLT
TAF
KCLT 190521Z 1906/2006 VRB03KT P6SM BKN060
     FM191200 36003KT P6SM FEW060 SCT250
     FM200100 07003KT P6SM SCT070 BKN250=



000
FTUS42 KGSP 182339
TAFCLT
TAF
KCLT 182339Z 1900/1924 20003KT P6SM SCT070 BKN200
     FM190200 35003KT P6SM SCT050 SCT070 BKN200
     FM191300 02003KT P6SM SCT200=



000
FTUS42 KGSP 182339
TAFAVL
TAF
KAVL 182339Z 1900/1924 34012G18KT P6SM BKN060
     FM190300 33011KT P6SM SCT060
     FM191600 34007KT P6SM SCT200=



000
FTUS42 KGSP 182339
TAFGSP
TAF
KGSP 182339Z 1900/1924 21003KT P6SM BKN060 OVC200
     FM190300 34004KT P6SM SCT060 BKN200
     FM191300 03005KT P6SM BKN200=



000
FTUS42 KGSP 182057 AAA
TAFCLT
TAF AMD
KCLT 182057Z 1821/1918 23003KT P6SM SCT100 BKN250
     FM190300 36003KT P6SM SCT250=



000
FTUS42 KGSP 182057 AAA
TAFCLT
TAF AMD
KCLT 182057Z 1821/1918 23003KT P6SM SCT100 BKN250
     FM190300 36003KT P6SM SCT250=



000
FTUS42 KGSP 181740
TAFCLT
TAF
KCLT 181740Z 1818/1918 18003KT P6SM SCT080 BKN250
     FM190300 36003KT P6SM SCT250=



000
FTUS42 KGSP 181740
TAFAVL
TAF
KAVL 181740Z 1818/1918 34006KT P6SM BKN070
     FM190000 33008KT P6SM SCT060=



000
FTUS42 KGSP 181740
TAFGSP
TAF
KGSP 181740Z 1818/1918 21003KT P6SM BKN090
     FM182300 25003KT P6SM SCT080
     FM190100 36003KT P6SM FEW250=



000
FTUS42 KGSP 181740
TAFAVL
TAF
KAVL 181740Z 1818/1918 34006KT P6SM BKN070
     FM190000 33008KT P6SM SCT060=



000
FTUS42 KGSP 181740
TAFCLT
TAF
KCLT 181740Z 1818/1918 18003KT P6SM SCT080 BKN250
     FM190300 36003KT P6SM SCT250=



000
FTUS42 KGSP 181501 AAA
TAFAVL
TAF AMD
KAVL 181501Z 1815/1912 34006KT P6SM BKN090 OVC150
     FM190200 34005KT P6SM SCT060=



000
FTUS42 KGSP 181501 AAA
TAFAVL
TAF AMD
KAVL 181501Z 1815/1912 34006KT P6SM BKN090 OVC150
     FM190200 34005KT P6SM SCT060=



000
FTUS42 KGSP 181458 AAA
TAFCLT
TAF AMD
KCLT 181458Z 1815/1912 06006KT P6SM BKN100 OVC180
     FM181700 12004KT P6SM SCT080 BKN250
     FM182000 23005KT P6SM FEW080 SCT250
     FM190300 30003KT P6SM FEW250=



000
FTUS42 KGSP 181458 AAA
TAFCLT
TAF AMD
KCLT 181458Z 1815/1912 06006KT P6SM BKN100 OVC180
     FM181700 12004KT P6SM SCT080 BKN250
     FM182000 23005KT P6SM FEW080 SCT250
     FM190300 30003KT P6SM FEW250=



000
FTUS42 KGSP 181133
TAFAVL
TAF
KAVL 181133Z 1812/1912 34011G18KT P6SM BKN140 OVC180
     FM181800 35006KT P6SM BKN080 OVC180
     FM190200 34005KT P6SM SCT060=



000
FTUS42 KGSP 181133
TAFCLT
TAF
KCLT 181133Z 1812/1912 02004KT P6SM BKN250
     FM181400 05005KT P6SM SCT120 BKN250
     FM181700 12004KT P6SM SCT080 BKN250
     FM182000 23005KT P6SM FEW080 SCT250
     FM190300 30003KT P6SM FEW250=



000
FTUS42 KGSP 181133
TAFGSP
TAF
KGSP 181133Z 1812/1912 00000KT P6SM FEW180 BKN250
     FM181400 05003KT P6SM SCT140 BKN250
     FM181800 12003KT P6SM SCT080 BKN250
     FM182100 22004KT P6SM FEW080 SCT250
     FM190300 29003KT P6SM FEW250=



000
FTUS42 KGSP 181133
TAFCLT
TAF
KCLT 181133Z 1812/1912 02004KT P6SM BKN250
     FM181400 05005KT P6SM SCT120 BKN250
     FM181700 12004KT P6SM SCT080 BKN250
     FM182000 23005KT P6SM FEW080 SCT250
     FM190300 30003KT P6SM FEW250=



000
FTUS42 KGSP 181133
TAFAVL
TAF
KAVL 181133Z 1812/1912 34011G18KT P6SM BKN140 OVC180
     FM181800 35006KT P6SM BKN080 OVC180
     FM190200 34005KT P6SM SCT060=



000
FTUS42 KGSP 181029 AAA
TAFAVL
TAF AMD
KAVL 181029Z 1810/1906 34011G18KT P6SM BKN140
     FM181200 34009KT P6SM BKN090
     FM181800 35006KT P6SM BKN060
     FM190200 34005KT P6SM SCT060=



000
FTUS42 KGSP 181029 AAA
TAFAVL
TAF AMD
KAVL 181029Z 1810/1906 34011G18KT P6SM BKN140
     FM181200 34009KT P6SM BKN090
     FM181800 35006KT P6SM BKN060
     FM190200 34005KT P6SM SCT060=



000
FTUS42 KGSP 180854 AAA
TAFCLT
TAF AMD
KCLT 180854Z 1809/1906 34003KT P6SM SCT250
     FM181500 04005KT P6SM BKN140
     FM181700 14004KT P6SM BKN070
     FM182000 22005KT P6SM BKN070
     FM190300 33003KT P6SM BKN060=



000
FTUS42 KGSP 180854 AAA
TAFCLT
TAF AMD
KCLT 180854Z 1809/1906 34003KT P6SM SCT250
     FM181500 04005KT P6SM BKN140
     FM181700 14004KT P6SM BKN070
     FM182000 22005KT P6SM BKN070
     FM190300 33003KT P6SM BKN060=



000
FTUS42 KGSP 180854 AAA
TAFCLT
TAF AMD
KCLT 180854Z 1809/1906 34003KT P6SM SCT250
     FM181500 04005KT P6SM BKN140
     FM181700 14004KT P6SM BKN070
     FM182000 22005KT P6SM BKN070
     FM190300 33003KT P6SM BKN060=



000
FTUS42 KGSP 180854 AAA
TAFCLT
TAF AMD
KCLT 180854Z 1809/1906 34003KT P6SM SCT250
     FM181500 04005KT P6SM BKN140
     FM181700 14004KT P6SM BKN070
     FM182000 22005KT P6SM BKN070
     FM190300 33003KT P6SM BKN060=



    US Dept of Commerce
    National Oceanic and Atmospheric Administration
    National Weather Service
    1325 East West Highway
    Silver Spring, MD 20910
    Page Author: NWS Internet Services Team
Disclaimer
Information Quality
Credits
Glossary
Privacy Policy
Freedom of Information Act (FOIA)
About Us
Career Opportunities